Aérodrome :
LOGIN :

S'inscrire | Disclaimer

   EN    FR    IT 

 










Légende :    VFR   VFR Marginal   IFR   IFR Intensif   IFR Très Intensif
Visi : 
Plafond : 
>= 8 km
>= 3000ft
5 à 8 km
1000 à 3000 ft
1500m à 5 km
500 à 1000 ft
800 à 1500m
200 à 500 ft
< 800m
< 200 ft
Symboles :   Orages  Brouillard  Fortes neiges  Fortes précipitations  Vent > 20 kt
SIGMETs :   Divers  Orages  Givrage  Turbulence  Onde Orograph.  Cendres Volcan.






- Altitude de l'aérodrome : 18 ft


LIPC - Cervia AFB Ravenna

DERNIER METAR :
  • 250355Z 27009KT CAVOK 19/17 Q1012 RMK BKN SCT090 SCT200 VIS MIN 9999 WIND THR11 28007KT WIND THR29 27006KT BLU

METARs EXPIRÉS :
  • 250255Z 28009KT CAVOK 19/18 Q1011
  • 250155Z 26011KT CAVOK 19/18 Q1011 RMK BKN SCT080 SCT200 VIS MIN 9999 WIND THR11 28008KT WIND THR29 27008KT BLU
  • 242355Z 26010KT 9999 FEW040 19/18 Q1012 RMK BKN SCT080 VIS MIN 9999 WIND THR11 26009KT WIND THR29 27009KT BLU

TAF TAF LIPC
Valide du 25 à 03h jusqu'au 25 à 12h UTC


250200Z 2503/2512 27010KT 9999 SCT030 SCT060
TEMPO 2503/2506 4000 TSRA SCT025CB



MET'MAP, la Météo Aéronautique d'un coup d'oeil ! - Copyright ORBIFLY Décembre 2007 - Disclaimer

ORBIFLY MET'MAP TEAM :

Programmation & Développement : Alexandra Zaïnal
Sur une idée originale de : Baudouin d'Aumeries
Soutien technique & logistique : Manuel Goepfert
Assistance : Marc-Olivier Méhu




SOURCES & CREDITS :

   NOAA